createdAt,value
2019-05-25T00:01:31.492Z,1999.90
2019-05-25T00:04:04.366Z,1999.90
2019-05-25T00:06:34.053Z,1999.90
2019-05-25T00:09:03.831Z,1999.90
2019-05-25T00:11:33.764Z,1999.90
2019-05-25T00:14:03.541Z,1999.90
2019-05-25T00:16:36.903Z,1999.90
2019-05-25T00:19:06.912Z,1999.90
2019-05-25T00:21:41.114Z,1999.90
2019-05-25T00:24:12.408Z,1999.90
2019-05-25T00:26:40.405Z,1999.90
2019-05-25T00:29:10.436Z,1999.90
2019-05-25T00:31:40.918Z,1999.90
2019-05-25T00:34:10.195Z,1999.90
2019-05-25T00:36:42.124Z,1999.90
2019-05-25T00:39:11.415Z,1999.90
2019-05-25T00:41:40.921Z,1999.90
2019-05-25T00:44:10.195Z,1999.90
2019-05-25T00:46:39.429Z,1999.90
2019-05-25T00:49:09.278Z,1999.90
2019-05-25T00:51:38.957Z,1999.90
2019-05-25T00:54:09.114Z,1999.90
2019-05-25T00:56:41.070Z,1999.90
2019-05-25T00:59:10.324Z,1999.90
2019-05-25T01:01:39.926Z,1999.90
2019-05-25T01:04:09.630Z,1999.90
2019-05-25T01:06:39.205Z,1784.83
2019-05-25T01:09:09.015Z,1733.03
2019-05-25T01:11:38.646Z,1819.83
2019-05-25T01:14:07.842Z,1731.13
2019-05-25T01:16:38.099Z,1806.80
2019-05-25T01:19:07.686Z,1736.07
2019-05-25T01:21:37.354Z,1768.10
2019-05-25T01:24:06.929Z,1732.87
2019-05-25T01:26:36.218Z,1683.67
2019-05-25T01:29:05.723Z,1670.47
2019-05-25T01:31:35.783Z,1664.97
2019-05-25T01:34:05.558Z,1698.23
2019-05-25T01:36:34.940Z,1683.10
2019-05-25T01:39:06.410Z,1748.77
2019-05-25T01:41:36.355Z,1718.07
2019-05-25T01:44:06.151Z,1789.00
2019-05-25T01:46:35.799Z,1781.50
2019-05-25T01:49:05.893Z,1758.03
2019-05-25T01:51:36.594Z,1835.93
2019-05-25T01:54:06.677Z,1826.30
2019-05-25T01:56:37.796Z,1755.10
2019-05-25T01:59:07.100Z,1770.57
2019-05-25T02:01:36.905Z,1726.77
2019-05-25T02:04:06.811Z,1675.87
2019-05-25T02:06:36.341Z,1767.90
2019-05-25T02:09:27.832Z,1755.83
2019-05-25T02:11:57.509Z,1846.70
2019-05-25T02:14:27.083Z,1763.73
2019-05-25T02:16:56.657Z,1675.20
2019-05-25T02:19:26.368Z,1667.00
2019-05-25T02:21:55.947Z,1685.20
2019-05-25T02:24:25.608Z,1609.03
2019-05-25T02:26:55.035Z,1569.60
2019-05-25T02:29:24.662Z,1568.17
2019-05-25T02:31:53.983Z,1500.13
2019-05-25T02:34:27.058Z,1540.17
2019-05-25T02:37:08.775Z,1543.57
2019-05-25T02:39:38.506Z,1529.13
2019-05-25T02:42:08.276Z,1499.73
2019-05-25T02:44:37.569Z,1453.23
2019-05-25T02:47:07.196Z,1417.93
2019-05-25T02:49:36.524Z,1434.07
2019-05-25T02:52:06.454Z,1545.17
2019-05-25T02:54:35.830Z,1361.27
2019-05-25T02:57:05.416Z,1346.80
2019-05-25T02:59:35.046Z,1351.60
2019-05-25T03:02:04.819Z,1376.20
2019-05-25T03:04:34.022Z,1356.73
2019-05-25T03:07:03.823Z,1299.03
2019-05-25T03:09:35.192Z,1278.90
2019-05-25T03:12:04.492Z,1326.07
2019-05-25T03:14:34.256Z,1172.13
2019-05-25T03:17:04.238Z,1185.07
2019-05-25T03:19:33.706Z,1185.13
2019-05-25T03:22:03.370Z,1194.50
2019-05-25T03:24:33.179Z,1196.70
2019-05-25T03:27:02.839Z,1208.20
2019-05-25T03:29:35.677Z,1125.93
2019-05-25T03:32:05.175Z,1061.60
2019-05-25T03:35:28.386Z,1061.90
2019-05-25T03:37:55.467Z,1298.53
2019-05-25T03:40:25.291Z,1147.07
2019-05-25T03:42:55.345Z,1010.40
2019-05-25T03:45:25.585Z,1016.47
2019-05-25T03:47:57.096Z,1032.43
2019-05-25T03:50:27.574Z,1293.20
2019-05-25T03:52:58.849Z,1282.07
2019-05-25T03:55:29.523Z,1178.40
2019-05-25T03:57:59.655Z,1288.70
2019-05-25T04:00:35.386Z,1354.47
2019-05-25T04:03:05.117Z,1366.47
2019-05-25T04:05:35.449Z,1457.00
2019-05-25T04:08:05.732Z,1487.60
2019-05-25T04:10:38.837Z,1264.73
2019-05-25T04:13:08.517Z,1444.40
2019-05-25T04:15:40.789Z,1377.03
2019-05-25T04:18:17.233Z,1421.50
2019-05-25T04:20:48.386Z,1418.50
2019-05-25T04:23:18.563Z,1387.97
2019-05-25T04:25:48.682Z,1357.60
2019-05-25T04:28:19.775Z,1207.67
2019-05-25T04:30:49.879Z,1230.33
2019-05-25T04:33:19.561Z,1191.57
2019-05-25T04:35:49.535Z,1102.23
2019-05-25T04:38:19.256Z,1022.20
2019-05-25T04:40:49.244Z,932.23
2019-05-25T04:43:19.549Z,926.93
2019-05-25T04:45:49.346Z,966.20
2019-05-25T04:48:18.916Z,906.23
2019-05-25T04:50:49.273Z,905.47
2019-05-25T04:53:18.737Z,877.83
2019-05-25T04:55:48.415Z,861.33
2019-05-25T04:58:18.506Z,868.57
2019-05-25T05:00:49.282Z,883.17
2019-05-25T05:03:19.172Z,905.80
2019-05-25T05:05:48.872Z,877.07
2019-05-25T05:08:18.781Z,859.10
2019-05-25T05:10:49.559Z,882.07
2019-05-25T05:13:18.973Z,879.40
2019-05-25T05:15:48.943Z,874.73
2019-05-25T05:18:18.993Z,878.77
2019-05-25T05:20:48.980Z,896.70
2019-05-25T05:23:18.746Z,893.53
2019-05-25T05:25:48.326Z,916.27
2019-05-25T05:28:22.413Z,890.60
2019-05-25T05:30:55.694Z,863.67
2019-05-25T05:33:26.129Z,880.93
2019-05-25T05:35:57.416Z,872.73
2019-05-25T05:38:28.558Z,910.60
2019-05-25T05:40:59.708Z,881.70
2019-05-25T05:43:32.441Z,880.93
2019-05-25T05:46:05.518Z,872.53
2019-05-25T05:48:38.661Z,884.77
2019-05-25T05:51:11.747Z,877.07
2019-05-25T05:53:45.855Z,869.80
2019-05-25T05:56:15.949Z,887.20
2019-05-25T05:58:46.267Z,864.67
2019-05-25T06:01:16.166Z,875.67
2019-05-25T06:03:48.157Z,867.77
2019-05-25T06:06:18.003Z,894.63
2019-05-25T06:08:47.601Z,844.07
2019-05-25T06:11:17.422Z,866.30
2019-05-25T06:13:49.140Z,879.77
2019-05-25T06:16:19.565Z,889.30
2019-05-25T06:18:49.586Z,895.80
2019-05-25T06:21:19.945Z,862.10
2019-05-25T06:23:49.340Z,894.93
2019-05-25T06:26:19.300Z,884.53
2019-05-25T06:28:49.448Z,874.87
2019-05-25T06:31:19.068Z,904.70
2019-05-25T06:33:50.784Z,884.23
2019-05-25T06:36:20.533Z,880.80
2019-05-25T06:38:50.936Z,899.97
2019-05-25T06:41:21.170Z,891.30
2019-05-25T06:43:54.028Z,887.63
2019-05-25T06:46:24.035Z,888.87
2019-05-25T06:48:53.856Z,888.60
2019-05-25T06:51:23.667Z,861.73
2019-05-25T06:53:53.654Z,862.07
2019-05-25T06:56:23.961Z,893.93
2019-05-25T06:58:54.440Z,869.87
2019-05-25T07:01:24.020Z,875.87
2019-05-25T07:03:53.878Z,860.33
2019-05-25T07:06:23.904Z,875.83
2019-05-25T07:08:53.963Z,869.73
2019-05-25T07:11:23.985Z,858.83
2019-05-25T07:13:54.370Z,871.67
2019-05-25T07:16:24.359Z,860.67
2019-05-25T07:45:23.963Z,876.43
2019-05-25T07:47:54.943Z,541.27
2019-05-25T07:50:29.555Z,771.73
2019-05-25T07:53:03.600Z,825.33
2019-05-25T07:55:33.489Z,857.80
2019-05-25T07:58:16.760Z,868.67
2019-05-25T08:00:37.597Z,863.53
2019-05-25T08:03:07.737Z,863.00
2019-05-25T08:05:39.906Z,868.97
2019-05-25T08:08:10.245Z,888.63
2019-05-25T08:10:40.499Z,859.47
2019-05-25T08:13:13.430Z,877.80
2019-05-25T08:15:45.619Z,858.30
2019-05-25T08:18:15.746Z,891.50
2019-05-25T08:20:47.317Z,862.43
2019-05-25T08:23:21.614Z,885.80
2019-05-25T08:25:51.587Z,867.90
2019-05-25T08:28:32.146Z,864.60
2019-05-25T08:30:53.179Z,852.07
2019-05-25T08:33:23.195Z,865.10
2019-05-25T08:35:52.679Z,873.27
2019-05-25T08:38:22.693Z,857.90
2019-05-25T08:40:53.500Z,836.93
2019-05-25T08:43:23.492Z,821.80
2019-05-25T08:45:52.952Z,856.07
2019-05-25T08:48:22.755Z,844.47
2019-05-25T08:50:52.953Z,845.07
2019-05-25T08:53:40.014Z,866.57
2019-05-25T08:55:56.895Z,862.87
2019-05-25T08:58:27.446Z,825.17
2019-05-25T09:00:57.976Z,859.10
2019-05-25T09:06:59.470Z,866.23
2019-05-25T09:10:19.412Z,851.87
2019-05-25T09:12:49.280Z,861.80
2019-05-25T09:15:19.951Z,848.90
2019-05-25T09:21:18.678Z,847.20
2019-05-25T09:23:48.969Z,847.53
2019-05-25T09:26:18.794Z,871.70
2019-05-25T09:29:03.536Z,825.30
2019-05-25T09:31:20.599Z,846.37
2019-05-25T09:33:50.608Z,882.53
2019-05-25T09:36:20.609Z,864.07
2019-05-25T09:38:53.090Z,850.07
2019-05-25T09:41:22.840Z,865.47
2019-05-25T09:43:53.514Z,851.17
2019-05-25T09:46:23.864Z,844.13
2019-05-25T09:48:57.578Z,870.47
2019-05-25T09:51:26.745Z,858.30
2019-05-25T09:53:59.361Z,861.97
2019-05-25T09:56:32.458Z,855.63
2019-05-25T09:59:18.990Z,854.67
2019-05-25T10:01:37.359Z,824.23
2019-05-25T10:04:07.422Z,832.27
2019-05-25T10:06:40.216Z,865.90
2019-05-25T13:23:05.554Z,834.43
2019-05-25T13:25:35.395Z,898.17
2019-05-25T13:28:05.009Z,907.63
2019-05-25T13:30:34.539Z,905.03
2019-05-25T13:33:16.872Z,909.97
2019-05-25T13:42:26.596Z,909.63
2019-05-25T13:44:55.794Z,900.70
2019-05-25T13:47:30.510Z,897.30
2019-05-25T13:50:05.488Z,922.97
2019-05-25T13:52:35.540Z,912.07
2019-05-25T15:51:47.093Z,886.43
2019-05-25T15:54:17.009Z,889.87
2019-05-25T15:56:46.609Z,950.03
2019-05-25T15:59:16.104Z,925.47
2019-05-25T16:01:45.510Z,926.87
2019-05-25T16:04:15.525Z,940.60
2019-05-25T16:06:45.405Z,933.97
2019-05-25T16:09:15.185Z,952.43
2019-05-25T16:11:44.690Z,917.40
2019-05-25T16:14:14.343Z,922.27
2019-05-25T16:16:44.072Z,928.33
2019-05-25T16:19:13.746Z,904.40
2019-05-25T16:21:43.866Z,928.07
2019-05-25T16:24:13.844Z,927.87
2019-05-25T16:26:46.232Z,927.90
2019-05-25T16:29:14.762Z,933.23
2019-05-25T16:31:44.009Z,942.07
2019-05-25T16:34:14.075Z,919.10
2019-05-25T16:36:43.749Z,927.13
2019-05-25T16:39:12.994Z,928.10
2019-05-25T16:41:42.132Z,938.60
2019-05-25T16:44:11.686Z,914.90
2019-05-25T16:46:41.417Z,928.03
2019-05-25T16:49:10.961Z,923.63
2019-05-25T16:51:40.752Z,960.87
2019-05-25T16:54:10.474Z,917.97
2019-05-25T16:56:39.885Z,935.43
2019-05-25T16:59:12.809Z,944.60
2019-05-25T17:01:48.236Z,951.13
2019-05-25T17:04:14.354Z,928.50
2019-05-25T17:06:44.170Z,955.63
2019-05-25T17:09:14.400Z,918.33
2019-05-25T17:11:46.763Z,934.43
2019-05-25T17:14:16.404Z,918.27
2019-05-25T17:16:52.702Z,947.63
2019-05-25T17:19:22.424Z,929.20
2019-05-25T17:21:51.687Z,925.80
2019-05-25T17:24:21.377Z,947.83
2019-05-25T17:26:51.119Z,934.20
2019-05-25T17:29:20.789Z,948.43
2019-05-25T17:31:50.356Z,928.90
2019-05-25T17:34:19.985Z,906.13
2019-05-25T17:36:49.908Z,960.03
2019-05-25T17:39:19.495Z,939.00
2019-05-25T17:41:52.340Z,934.40
2019-05-25T17:44:22.299Z,932.67
2019-05-25T17:46:51.727Z,928.13
2019-05-25T17:49:21.112Z,925.57
2019-05-25T17:51:50.850Z,939.43
2019-05-25T17:54:20.443Z,928.10
2019-05-25T17:56:50.016Z,915.97
2019-05-25T17:59:20.012Z,956.00
2019-05-25T18:01:49.296Z,927.57
2019-05-25T18:04:18.732Z,936.27
2019-05-25T18:06:48.163Z,921.43
2019-05-25T18:09:17.759Z,938.87
2019-05-25T18:11:47.266Z,946.30
2019-05-25T18:14:21.371Z,950.10
2019-05-25T18:16:50.868Z,934.27
2019-05-25T18:19:20.165Z,969.27
2019-05-25T18:21:49.700Z,927.00
2019-05-25T18:24:19.342Z,957.67
2019-05-25T18:26:50.587Z,955.73
2019-05-25T18:29:59.386Z,925.93
2019-05-25T18:32:28.992Z,920.73
2019-05-25T18:34:58.739Z,927.70
2019-05-25T18:37:30.892Z,927.27
2019-05-25T18:40:00.770Z,967.07
2019-05-25T18:42:30.686Z,951.23
2019-05-25T18:45:00.626Z,501.17
2019-05-25T18:47:30.246Z,469.23
2019-05-25T18:49:59.335Z,447.43
2019-05-25T18:52:42.023Z,489.90
2019-05-25T18:55:13.093Z,505.23
2019-05-25T18:57:42.803Z,507.07
2019-05-25T19:00:15.585Z,473.47
2019-05-25T19:02:45.269Z,475.37
2019-05-25T19:05:19.430Z,478.30
2019-05-25T19:07:50.907Z,493.10
2019-05-25T19:10:22.699Z,511.63
2019-05-25T19:12:54.947Z,473.60
2019-05-25T19:15:27.686Z,492.77
2019-05-25T19:18:02.766Z,441.60
2019-05-25T19:20:37.387Z,465.97
2019-05-25T19:24:06.125Z,486.40
2019-05-25T19:29:45.387Z,386.90
2019-05-25T19:32:17.559Z,443.63
2019-05-25T19:34:59.042Z,467.03
2019-05-25T19:37:20.469Z,426.03
2019-05-25T19:39:50.102Z,409.23
2019-05-25T19:42:29.165Z,433.43
2019-05-25T19:44:59.890Z,412.90
2019-05-25T19:47:31.462Z,461.77
2019-05-25T19:50:04.895Z,436.03
2019-05-25T19:52:32.473Z,393.27
2019-05-25T19:55:05.267Z,454.17
2019-05-25T19:57:34.887Z,419.00
2019-05-25T20:00:04.791Z,434.23
2019-05-25T20:02:52.164Z,431.30
2019-05-25T20:05:19.430Z,397.23
2019-05-25T20:07:49.133Z,445.50
2019-05-25T20:10:20.038Z,438.47
2019-05-25T20:12:49.735Z,398.40
2019-05-25T20:15:23.785Z,420.97
2019-05-25T20:18:00.368Z,397.73
2019-05-25T20:20:35.248Z,410.40
2019-05-25T20:23:06.912Z,399.20
2019-05-25T20:25:36.197Z,394.67
2019-05-25T20:28:07.568Z,408.30
2019-05-25T20:30:37.713Z,409.70
2019-05-25T20:33:09.434Z,373.40
2019-05-25T20:35:50.014Z,386.43
2019-05-25T20:38:21.055Z,355.23
2019-05-25T20:40:50.392Z,17.80
2019-05-25T20:43:19.747Z,17.63
2019-05-25T20:45:51.729Z,13.70
2019-05-25T20:48:21.022Z,17.07
2019-05-25T20:50:50.315Z,12.17
2019-05-25T20:53:19.483Z,15.93
2019-05-25T20:55:51.363Z,14.80
2019-05-25T20:58:25.688Z,13.23
2019-05-25T21:00:56.901Z,10.53
2019-05-25T21:03:28.191Z,11.33
2019-05-25T21:06:00.235Z,9.93
2019-05-25T21:08:32.548Z,14.70
2019-05-25T21:11:01.872Z,16.17
2019-05-25T21:13:34.586Z,11.30
2019-05-25T21:16:03.907Z,14.87
2019-05-25T21:18:33.389Z,11.20
2019-05-25T21:21:22.662Z,12.77
2019-05-25T21:24:46.699Z,8.70
2019-05-25T21:27:20.862Z,6.97
2019-05-25T21:29:54.427Z,8.70
2019-05-25T21:32:23.878Z,8.77
2019-05-25T21:34:53.437Z,10.77
2019-05-25T21:37:23.268Z,11.07
2019-05-25T21:39:55.168Z,10.70
2019-05-25T21:42:26.130Z,13.93
2019-05-25T21:44:55.436Z,9.77
2019-05-25T21:47:24.684Z,10.43
2019-05-25T21:49:54.465Z,7.27
2019-05-25T21:52:32.585Z,10.00
2019-05-25T21:58:31.465Z,8.13
2019-05-25T22:01:01.105Z,9.77
2019-05-25T22:03:33.165Z,7.57
2019-05-25T22:06:05.092Z,9.77
2019-05-25T22:08:37.968Z,12.27
2019-05-25T22:11:10.315Z,11.30
2019-05-25T22:13:51.069Z,10.20
2019-05-25T22:16:20.286Z,8.90
2019-05-25T22:18:49.706Z,10.77
2019-05-25T22:21:21.785Z,10.27
2019-05-25T22:24:02.861Z,3.07
2019-05-25T22:26:34.727Z,5.03
2019-05-25T22:29:04.221Z,3.70
2019-05-25T22:31:41.108Z,4.70
2019-05-25T22:34:10.736Z,3.17
2019-05-25T22:36:41.285Z,3.40
2019-05-25T22:39:14.103Z,9.07
2019-05-25T22:41:43.169Z,7.47
2019-05-25T22:44:14.854Z,3.73
2019-05-25T22:46:46.605Z,4.00
2019-05-25T22:49:16.056Z,3.30
2019-05-25T22:51:45.347Z,5.50
2019-05-25T22:54:19.631Z,3.73
2019-05-25T22:56:55.933Z,3.23
2019-05-25T22:59:25.240Z,3.43
2019-05-25T23:02:08.635Z,3.03
2019-05-25T23:04:25.629Z,5.47
2019-05-25T23:06:58.654Z,2.90
2019-05-25T23:09:29.565Z,4.57
2019-05-25T23:12:02.000Z,4.30
2019-05-25T23:14:31.551Z,6.67
2019-05-25T23:17:00.689Z,4.80
2019-05-25T23:19:33.178Z,7.63
2019-05-25T23:22:03.889Z,3.83
2019-05-25T23:24:32.973Z,4.97
2019-05-25T23:27:04.431Z,6.23
2019-05-25T23:29:33.412Z,4.10
2019-05-25T23:32:03.163Z,4.20
2019-05-25T23:34:32.418Z,5.03
2019-05-25T23:37:14.398Z,6.53
2019-05-25T23:39:32.455Z,5.40
2019-05-25T23:42:02.012Z,3.77
2019-05-25T23:44:31.192Z,6.63
2019-05-25T23:47:01.768Z,6.17
2019-05-25T23:49:34.125Z,4.00
2019-05-25T23:52:03.177Z,4.00
2019-05-25T23:54:32.341Z,5.53
2019-05-25T23:57:59.318Z,6.60
